Time;durP1;ratioP1;P1;durP2;ratioP2;P2;SDS_P1;SDS_P2;PMS_P1;PMS_P2;Temp;Humidity;BMP_temperature;BMP_pressure;BME280_temperature;BME280_humidity;BME280_pressure;Samples;Min_cycle;Max_cycle;Signal;HPM_P1;HPM_P2
2022/08/18 00:00:47;;;;;;;53.30;43.25;;;;;;;18.53;100.00;101268.81;5035884;28;20406;-77
2022/08/18 00:03:12;;;;;;;48.20;41.67;;;;;;;18.42;100.00;101250.66;5035762;28;20026;-77
2022/08/18 00:05:38;;;;;;;48.15;42.08;;;;;;;18.50;100.00;101272.53;5035643;28;20033;-77
2022/08/18 00:08:04;;;;;;;46.47;41.40;;;;;;;18.39;100.00;101264.84;5035721;28;20446;-78
2022/08/18 00:10:30;;;;;;;50.95;41.85;;;;;;;18.38;100.00;101249.25;5035961;28;20029;-78
2022/08/18 00:12:56;;;;;;;47.17;40.90;;;;;;;18.37;100.00;101255.47;5035664;28;20411;-78
2022/08/18 00:15:22;;;;;;;48.95;41.55;;;;;;;18.50;100.00;101282.19;5035740;28;20034;-78
2022/08/18 00:17:47;;;;;;;47.05;40.58;;;;;;;18.48;100.00;101278.84;5035580;28;20025;-78
2022/08/18 00:20:20;;;;;;;46.05;40.55;;;;;;;18.47;100.00;101274.59;5035283;28;20030;-78
2022/08/18 00:22:45;;;;;;;47.55;41.40;;;;;;;18.43;100.00;101276.66;5035655;28;20025;-77
2022/08/18 00:25:13;;;;;;;44.97;39.95;;;;;;;18.40;100.00;101278.75;5035571;28;20030;-78
2022/08/18 00:27:40;;;;;;;48.03;39.85;;;;;;;18.34;100.00;101264.41;5035478;28;20029;-77
2022/08/18 00:30:10;;;;;;;46.58;39.70;;;;;;;18.38;100.00;101278.84;5035357;28;20028;-77
2022/08/18 00:32:39;;;;;;;47.05;40.45;;;;;;;18.41;100.00;101286.44;5035260;28;20032;-78
2022/08/18 00:35:11;;;;;;;47.35;40.50;;;;;;;18.38;100.00;101283.25;5035205;28;20025;-77
2022/08/18 00:37:37;;;;;;;49.97;40.33;;;;;;;18.32;100.00;101282.03;5035306;28;20474;-77
2022/08/18 00:40:09;;;;;;;47.13;40.72;;;;;;;18.42;100.00;101295.09;5035253;28;20069;-77
2022/08/18 00:42:42;;;;;;;45.33;39.40;;;;;;;18.44;100.00;101301.03;5035209;28;20432;-77
2022/08/18 00:45:11;;;;;;;46.20;39.75;;;;;;;18.35;100.00;101285.19;5035015;28;20025;-83
2022/08/18 00:47:36;;;;;;;46.30;39.97;;;;;;;18.39;100.00;101295.38;5035233;28;20029;-81
2022/08/18 00:50:02;;;;;;;45.80;38.97;;;;;;;18.43;100.00;101302.81;5034894;28;20112;-81
2022/08/18 00:52:28;;;;;;;43.53;38.40;;;;;;;18.23;100.00;101280.22;5034940;28;20048;-83
2022/08/18 00:54:54;;;;;;;43.60;38.83;;;;;;;18.22;100.00;101287.22;5035049;28;20493;-79
2022/08/18 00:57:21;;;;;;;44.13;39.35;;;;;;;18.34;100.00;101304.44;5034974;28;20556;-83
2022/08/18 00:59:56;;;;;;;46.70;41.22;;;;;;;18.37;100.00;101307.75;5035005;28;20017;-83
2022/08/18 01:02:29;;;;;;;47.72;41.33;;;;;;;18.32;100.00;101295.91;5034896;28;20026;-83
2022/08/18 01:04:59;;;;;;;50.67;40.55;;;;;;;18.29;100.00;101298.00;5034660;28;20057;-83
2022/08/18 01:07:32;;;;;;;47.00;38.95;;;;;;;18.26;100.00;101303.47;5034760;28;20389;-83
2022/08/18 01:09:58;;;;;;;48.03;39.72;;;;;;;18.26;100.00;101303.47;5034807;28;20076;-83
2022/08/18 01:12:25;;;;;;;48.17;38.72;;;;;;;18.19;100.00;101304.97;5034423;28;20037;-82
2022/08/18 01:14:51;;;;;;;45.17;37.85;;;;;;;18.05;100.00;101283.47;5034642;28;20080;-83
2022/08/18 01:22:48;;;;;;;42.30;37.50;;;;;;;18.13;100.00;101293.25;5034653;28;20064;-80
2022/08/18 01:28:02;;;;;;;46.20;38.45;;;;;;;18.05;100.00;101301.78;5034515;28;20507;-81
2022/08/18 01:30:29;;;;;;;45.53;39.85;;;;;;;17.97;100.00;101285.94;5016528;28;20017;-79
2022/08/18 01:32:57;;;;;;;50.28;42.67;;;;;;;17.93;100.00;101284.56;5034415;28;20491;-82
2022/08/18 01:35:24;;;;;;;51.63;42.72;;;;;;;17.94;100.00;101295.81;5034010;28;20108;-77
2022/08/18 01:37:51;;;;;;;52.20;43.20;;;;;;;17.94;100.00;101299.25;5033831;28;20057;-78
2022/08/18 01:40:20;;;;;;;51.00;42.92;;;;;;;17.90;100.00;101300.50;5033442;28;20120;-77
2022/08/18 01:42:45;;;;;;;52.45;43.35;;;;;;;17.70;100.00;101278.69;5033969;28;20030;-77
2022/08/18 01:45:13;;;;;;;49.35;42.05;;;;;;;17.80;100.00;101296.16;5033728;28;20095;-77
2022/08/18 01:47:39;;;;;;;50.63;42.55;;;;;;;17.63;100.00;101285.38;5033790;28;20025;-77
2022/08/18 01:50:07;;;;;;;54.20;44.72;;;;;;;17.69;100.00;101302.28;5033893;28;20049;-82
2022/08/18 01:52:34;;;;;;;51.20;43.03;;;;;;;17.40;100.00;101263.84;5033446;28;20431;-77
2022/08/18 01:55:00;;;;;;;56.38;45.45;;;;;;;17.44;100.00;101274.84;5034003;28;20358;-78
2022/08/18 01:57:25;;;;;;;52.40;43.50;;;;;;;17.53;100.00;101294.13;5033856;28;20108;-78
2022/08/18 01:59:50;;;;;;;54.95;44.55;;;;;;;17.39;100.00;101279.59;5033527;28;20029;-77
2022/08/18 02:02:23;;;;;;;53.72;44.25;;;;;;;17.30;100.00;101264.72;5033710;28;20036;-81
2022/08/18 02:04:52;;;;;;;55.58;42.97;;;;;;;17.31;100.00;101288.09;5033454;28;20039;-77
2022/08/18 02:07:18;;;;;;;52.42;43.70;;;;;;;17.29;100.00;101278.72;5015425;28;20044;-79
2022/08/18 02:09:43;;;;;;;56.17;44.78;;;;;;;17.13;100.00;101263.53;5033674;28;20104;-77
2022/08/18 02:12:09;;;;;;;55.65;43.13;;;;;;;17.24;100.00;101294.78;5015480;28;20109;-77
2022/08/18 02:14:35;;;;;;;54.35;44.33;;;;;;;17.23;100.00;101287.09;5033335;28;20030;-77
2022/08/18 02:17:03;;;;;;;53.58;43.58;;;;;;;17.20;100.00;101282.94;5033423;28;20029;-81
2022/08/18 02:19:37;;;;;;;57.13;44.88;;;;;;;17.02;100.00;101264.44;5015638;28;20483;-83
2022/08/18 02:22:04;;;;;;;53.35;42.95;;;;;;;17.00;100.00;101270.72;5033086;28;20518;-79
2022/08/18 02:24:29;;;;;;;52.97;42.03;;;;;;;17.09;100.00;101286.44;5033298;28;20496;-78
2022/08/18 02:26:55;;;;;;;56.17;43.25;;;;;;;17.02;100.00;101279.28;5015276;28;20033;-78
2022/08/18 02:29:21;;;;;;;52.08;41.10;;;;;;;17.07;100.00;101295.34;5033311;28;20033;-80
2022/08/18 02:31:46;;;;;;;57.75;44.80;;;;;;;17.02;100.00;101293.13;5033203;28;20022;-77
2022/08/18 02:34:11;;;;;;;57.42;43.13;;;;;;;16.92;100.00;101282.63;5033031;28;20050;-78
2022/08/18 02:36:36;;;;;;;54.65;42.95;;;;;;;16.88;100.00;101277.78;5032795;28;20370;-77
2022/08/18 02:39:03;;;;;;;57.00;43.80;;;;;;;16.90;100.00;101283.69;5033330;28;20065;-82
2022/08/18 02:41:28;;;;;;;52.90;42.85;;;;;;;16.94;100.00;101299.94;5033057;28;20075;-77
2022/08/18 02:43:53;;;;;;;58.75;44.05;;;;;;;16.77;100.00;101272.63;5032909;28;20442;-79
2022/08/18 02:46:19;;;;;;;55.60;43.53;;;;;;;16.55;100.00;101240.44;5032830;28;20025;-84
2022/08/18 02:48:45;;;;;;;55.40;42.45;;;;;;;16.75;100.00;101280.56;5032723;28;20057;-77
2022/08/18 02:51:13;;;;;;;59.85;44.42;;;;;;;16.83;100.00;101299.03;5031964;28;20068;-78
2022/08/18 02:53:41;;;;;;;54.08;41.78;;;;;;;16.79;100.00;101297.63;5014921;28;20401;-77
2022/08/18 02:56:23;;;;;;;51.70;40.05;;;;;;;16.77;100.00;101301.31;5032676;28;20029;-77
2022/08/18 02:58:52;;;;;;;45.15;39.25;;;;;;;16.44;100.00;101265.75;5032589;28;20036;-79
2022/08/18 03:01:18;;;;;;;52.75;42.65;;;;;;;16.71;100.00;101299.19;5032694;28;20405;-77
2022/08/18 03:03:44;;;;;;;47.58;38.22;;;;;;;16.58;100.00;101294.13;5032496;28;20032;-81
2022/08/18 03:06:09;;;;;;;44.97;36.95;;;;;;;16.55;100.00;101300.41;5032611;28;20029;-77
2022/08/18 03:08:34;;;;;;;46.17;36.55;;;;;;;16.16;100.00;101252.31;5032060;28;20033;-78
2022/08/18 03:11:00;;;;;;;45.65;37.22;;;;;;;16.32;100.00;101276.22;5032719;28;20465;-77
2022/08/18 03:13:25;;;;;;;45.97;37.08;;;;;;;16.41;100.00;101300.69;5032325;28;20402;-77
2022/08/18 03:15:51;;;;;;;40.25;32.88;;;;;;;16.37;100.00;101295.84;5032639;28;20473;-77
2022/08/18 03:18:17;;;;;;;42.53;35.38;;;;;;;16.28;100.00;101295.63;5032531;28;20385;-77
2022/08/18 03:20:44;;;;;;;49.67;38.00;;;;;;;16.25;100.00;101293.28;5032520;28;20033;-79
2022/08/18 03:23:10;;;;;;;42.80;36.35;;;;;;;16.13;100.00;101283.00;5031973;28;20093;-76
2022/08/18 03:25:41;;;;;;;44.47;36.17;;;;;;;16.19;100.00;101298.97;5032433;28;20040;-77
2022/08/18 03:28:07;;;;;;;;;;;;;;;16.24;100.00;101315.06;5032852;28;20096;-77
2022/08/18 03:30:32;;;;;;;40.53;33.15;;;;;;;16.19;100.00;101314.59;5032567;28;20372;-78
2022/08/18 03:32:57;;;;;;;41.63;34.47;;;;;;;16.05;100.00;101296.63;5032464;28;20029;-77
2022/08/18 03:35:22;;;;;;;43.55;34.15;;;;;;;16.15;100.00;101315.78;5032215;28;20455;-77
2022/08/18 03:37:48;;;;;;;39.25;32.60;;;;;;;16.10;100.00;101317.91;5032272;28;20029;-78
2022/08/18 03:40:13;;;;;;;41.85;34.20;;;;;;;16.04;100.00;101310.59;5032292;28;20025;-77
2022/08/18 03:42:38;;;;;;;45.72;35.40;;;;;;;15.99;100.00;101310.94;5032358;28;20033;-78
2022/08/18 03:45:05;;;;;;;39.08;32.30;;;;;;;16.01;100.00;101329.06;5032153;28;20029;-77
2022/08/18 03:47:30;;;;;;;43.28;33.38;;;;;;;15.97;100.00;101322.44;5032416;28;20029;-78
2022/08/18 03:49:56;;;;;;;38.17;32.17;;;;;;;15.96;100.00;101323.38;5032210;28;20416;-77
2022/08/18 03:52:22;;;;;;;38.20;30.65;;;;;;;15.93;100.00;101321.03;5031891;28;20362;-76
2022/08/18 03:54:47;;;;;;;41.67;33.63;;;;;;;15.91;100.00;101313.31;5032223;28;20446;-77
2022/08/18 03:57:12;;;;;;;39.42;31.88;;;;;;;15.84;100.00;101303.50;5032323;28;20105;-77
2022/08/18 03:59:40;;;;;;;37.65;31.65;;;;;;;15.94;100.00;101317.47;5032145;28;20025;-77
2022/08/18 04:02:06;;;;;;;39.65;31.33;;;;;;;15.98;100.00;101319.72;5033469;28;20431;-76
2022/08/18 04:04:32;;;;;;;36.67;30.13;;;;;;;15.96;100.00;101315.56;5035831;28;20112;-77
2022/08/18 04:07:03;;;;;;;38.42;31.20;;;;;;;16.08;100.00;101317.22;5035581;28;20104;-81
2022/08/18 04:09:31;;;;;;;36.90;30.75;;;;;;;16.03;100.00;101301.97;5018755;28;20032;-82
2022/08/18 04:12:01;;;;;;;34.90;29.63;;;;;;;16.09;100.00;101308.44;5036191;28;20025;-79
2022/08/18 04:14:31;;;;;;;34.75;29.95;;;;;;;16.10;100.00;101315.31;5035739;28;20033;-78
2022/08/18 04:16:57;;;;;;;36.00;28.52;;;;;;;15.92;100.00;101290.69;5035592;28;20499;-83
2022/08/18 04:19:23;;;;;;;34.85;27.58;;;;;;;16.06;100.00;101313.91;5035482;28;20025;-87
2022/08/18 04:21:52;;;;;;;44.90;36.60;;;;;;;16.10;100.00;101314.50;5035540;28;20488;-81
2022/08/18 04:24:17;;;;;;;44.40;33.65;;;;;;;16.05;100.00;101314.88;5035434;28;20091;-82
2022/08/18 04:26:45;;;;;;;46.45;35.90;;;;;;;15.87;100.00;101282.44;5035344;28;20065;-91
2022/08/18 04:29:16;;;;;;;49.13;38.15;;;;;;;16.09;100.00;101323.25;5035415;28;20029;-82
2022/08/18 04:31:42;;;;;;;47.00;36.30;;;;;;;16.00;100.00;101303.97;5036548;28;20385;-88
2022/08/18 04:34:17;;;;;;;49.22;38.28;;;;;;;16.07;100.00;101318.16;5035508;28;20030;-88
2022/08/18 04:37:14;;;;;;;47.85;36.53;;;;;;;16.06;100.00;101319.94;5035231;28;20052;-87
2022/08/18 04:40:13;;;;;;;48.17;36.85;;;;;;;16.06;100.00;101324.34;5035009;28;20033;-88
2022/08/18 04:42:56;;;;;;;49.83;38.47;;;;;;;15.55;100.00;101235.44;5035006;28;20025;-88
2022/08/18 04:45:21;;;;;;;57.88;41.40;;;;;;;16.13;100.00;101322.91;5036156;28;20036;-83
2022/08/18 04:47:46;;;;;;;57.47;42.67;;;;;;;15.92;100.00;101283.72;5017725;28;20034;-80
2022/08/18 04:50:12;;;;;;;61.20;44.08;;;;;;;16.20;100.00;101315.41;5034955;28;20087;-81
2022/08/18 04:55:21;;;;;;;56.88;42.08;;;;;;;16.31;100.00;101331.84;5035978;28;20044;-81
2022/08/18 04:57:46;;;;;;;62.83;45.20;;;;;;;16.25;100.00;101321.13;5017349;28;20042;-81
2022/08/18 05:00:12;;;;;;;62.22;44.22;;;;;;;15.96;100.00;101272.13;5035243;28;20021;-83
2022/08/18 05:02:38;;;;;;;61.60;43.90;;;;;;;16.27;100.00;101309.59;5035372;28;20096;-82
2022/08/18 05:05:04;;;;;;;63.35;45.05;;;;;;;16.43;100.00;101334.47;5035440;28;20056;-79
2022/08/18 05:07:29;;;;;;;64.07;45.42;;;;;;;16.46;100.00;101335.03;5036111;28;20057;-78
2022/08/18 05:09:55;;;;;;;61.97;43.97;;;;;;;16.48;100.00;101337.53;5017953;28;20069;-82
2022/08/18 05:12:20;;;;;;;56.88;44.05;;;;;;;16.37;100.00;101308.88;5034859;28;20056;-89
2022/08/18 05:14:46;;;;;;;63.67;44.97;;;;;;;16.53;100.00;101331.00;5034007;28;20025;-81
2022/08/18 05:17:13;;;;;;;66.38;45.05;;;;;;;16.57;100.00;101335.00;5034938;28;20026;-83
2022/08/18 05:19:40;;;;;;;58.83;44.05;;;;;;;16.59;100.00;101332.28;5034550;28;20033;-86
2022/08/18 05:22:06;;;;;;;59.22;43.90;;;;;;;16.58;100.00;101326.25;5016196;28;20037;-80
2022/08/18 05:24:34;;;;;;;62.60;44.58;;;;;;;16.49;100.00;101308.72;5034570;28;20026;-76
2022/08/18 05:26:59;;;;;;;59.53;44.88;;;;;;;16.83;100.00;101338.16;5034241;28;20428;-79
2022/08/18 05:29:25;;;;;;;57.42;43.45;;;;;;;16.96;100.00;101342.38;5034249;28;20080;-79
2022/08/18 05:31:52;;;;;;;55.65;43.40;;;;;;;17.06;100.00;101338.06;5034325;28;20030;-78
2022/08/18 05:34:20;;;;;;;57.05;43.97;;;;;;;17.29;100.00;101342.19;5034229;28;20021;-78
2022/08/18 05:36:48;;;;;;;55.47;42.05;;;;;;;17.44;100.00;101340.94;5034094;28;20025;-78
2022/08/18 05:39:34;;;;;;;51.03;41.33;;;;;;;17.66;100.00;101339.94;5033846;28;20029;-78
2022/08/18 05:42:21;;;;;;;51.03;40.00;;;;;;;17.84;100.00;101337.59;5033963;28;20056;-79
2022/08/18 05:44:53;;;;;;;48.92;38.17;;;;;;;17.83;100.00;101322.06;5033595;28;20075;-79
2022/08/18 05:47:26;;;;;;;49.95;38.72;;;;;;;18.11;100.00;101342.25;5016079;28;20030;-81
2022/08/18 05:49:55;;;;;;;45.20;37.08;;;;;;;18.04;100.00;101299.28;5033739;28;20026;-80
2022/08/18 05:52:30;;;;;;;45.80;36.42;;;;;;;18.48;100.00;101346.84;5033722;28;20465;-80
2022/08/18 05:57:57;;;;;;;43.88;35.67;;;;;;;19.45;99.05;101345.91;5033739;28;20064;-79
2022/08/18 06:00:23;;;;;;;42.63;35.55;;;;;;;20.20;94.05;101352.00;5033556;28;20021;-79
2022/08/18 06:03:00;;;;;;;40.33;31.67;;;;;;;20.96;90.54;101356.06;5033513;28;20059;-79
2022/08/18 06:05:31;;;;;;;38.17;32.65;;;;;;;20.87;86.93;101271.16;5033561;28;20499;-79
2022/08/18 06:08:35;;;;;;;35.03;29.15;;;;;;;21.86;88.51;101355.72;5033767;28;20373;-83
2022/08/18 06:11:00;;;;;;;34.13;29.38;;;;;;;21.68;83.41;101362.84;5033214;28;20037;-79
2022/08/18 06:13:26;;;;;;;36.33;29.88;;;;;;;21.29;83.42;101330.91;5033302;28;20068;-79
2022/08/18 06:16:17;;;;;;;35.03;30.80;;;;;;;20.99;86.23;101355.75;5033475;28;20041;-78
2022/08/18 06:18:55;;;;;;;33.75;30.23;;;;;;;20.69;86.83;101367.47;5033379;28;20017;-79
2022/08/18 06:21:46;;;;;;;35.00;31.30;;;;;;;20.38;89.11;101367.78;5033190;28;20045;-79
2022/08/18 06:24:34;;;;;;;37.10;32.65;;;;;;;20.04;90.42;101364.91;5033110;28;20021;-78
2022/08/18 06:27:13;;;;;;;38.45;32.70;;;;;;;19.83;91.32;101359.88;5033159;28;20060;-79
2022/08/18 06:30:03;;;;;;;39.45;32.80;;;;;;;20.16;91.77;101369.00;5033286;28;20429;-78
2022/08/18 06:33:05;;;;;;;37.53;32.13;;;;;;;21.31;88.68;101366.53;5033250;28;20036;-79
2022/08/18 06:35:53;;;;;;;35.13;31.20;;;;;;;22.70;83.95;101362.72;5033113;28;20033;-78
2022/08/18 06:38:40;;;;;;;35.33;29.05;;;;;;;23.82;76.69;101369.13;5033114;28;20025;-78
2022/08/18 06:41:34;;;;;;;32.67;27.85;;;;;;;24.75;73.69;101371.78;5033069;28;20029;-80
2022/08/18 06:44:16;;;;;;;30.38;27.10;;;;;;;25.21;67.67;101380.53;5032920;28;20097;-79
2022/08/18 06:46:53;;;;;;;29.33;24.85;;;;;;;25.61;66.72;101370.56;5032757;28;20485;-80
2022/08/18 06:50:01;;;;;;;29.85;25.45;;;;;;;26.36;68.46;101377.47;5033269;28;20030;-80
2022/08/18 06:52:36;;;;;;;26.73;23.88;;;;;;;26.75;62.79;101374.44;5032889;28;20096;-79
2022/08/18 06:55:12;;;;;;;28.42;24.23;;;;;;;27.19;60.66;101376.06;5032647;28;20017;-79
2022/08/18 06:57:53;;;;;;;25.80;22.48;;;;;;;27.22;58.07;101351.78;5032815;28;20068;-82
2022/08/18 07:00:27;;;;;;;26.50;21.90;;;;;;;27.21;58.10;101376.69;5032710;28;20117;-87
2022/08/18 07:03:33;;;;;;;26.17;23.58;;;;;;;26.62;61.73;101375.09;5032661;28;20385;-78
2022/08/18 07:06:07;;;;;;;29.95;24.20;;;;;;;26.54;61.35;101383.16;4952390;29;20043;-78
2022/08/18 07:08:35;;;;;;;25.17;22.58;;;;;;;26.53;59.86;101379.69;4936443;29;20455;-78
2022/08/18 07:11:31;;;;;;;25.25;22.50;;;;;;;27.05;61.93;101380.44;4936350;29;20143;-79
2022/08/18 07:14:13;;;;;;;24.83;20.83;;;;;;;27.48;59.88;101383.81;4861024;29;20457;-78
2022/08/18 07:16:39;;;;;;;25.50;20.60;;;;;;;27.49;55.96;101369.53;4876787;29;20128;-81
2022/08/18 07:19:08;;;;;;;21.60;19.25;;;;;;;27.61;55.17;101381.22;4876850;29;20488;-78
2022/08/18 07:21:36;;;;;;;22.17;19.80;;;;;;;27.13;57.45;101377.63;4876824;29;20041;-78
2022/08/18 07:24:40;;;;;;;21.80;19.40;;;;;;;26.05;60.23;101382.97;4876877;29;20090;-80
2022/08/18 07:27:16;;;;;;;21.60;18.65;;;;;;;24.61;64.00;101346.97;4821683;29;20431;-80
2022/08/18 07:30:04;;;;;;;21.98;19.58;;;;;;;24.29;67.16;101379.66;4821547;29;20129;-84
2022/08/18 07:32:43;;;;;;;22.52;19.23;;;;;;;23.69;70.15;101382.81;4821627;29;20034;-79
2022/08/18 07:35:10;;;;;;;21.73;18.52;;;;;;;23.43;70.39;101377.75;4821686;29;20091;-85
2022/08/18 07:38:16;;;;;;;22.60;19.55;;;;;;;23.17;71.03;101351.59;4823768;29;20042;-81
2022/08/18 07:41:01;;;;;;;21.40;18.27;;;;;;;23.41;70.48;101380.56;4760471;29;20056;-87
2022/08/18 07:43:51;;;;;;;19.95;17.85;;;;;;;23.51;72.08;101382.19;4806842;29;20038;-84
2022/08/18 07:46:42;;;;;;;20.10;17.42;;;;;;;23.59;71.07;101383.00;4806876;29;20034;-85
2022/08/18 07:49:09;;;;;;;19.02;17.00;;;;;;;23.39;70.92;101379.88;4806545;29;20038;-81
2022/08/18 07:52:12;;;;;;;19.75;17.38;;;;;;;23.33;72.32;101385.84;4842954;29;20038;-79
2022/08/18 07:54:58;;;;;;;23.17;18.08;;;;;;;23.27;71.41;101367.22;4835993;29;20049;-83
2022/08/18 07:57:33;;;;;;;19.10;17.08;;;;;;;23.17;70.37;101347.13;4842813;29;20046;-79
2022/08/18 08:00:17;;;;;;;18.88;16.05;;;;;;;23.41;72.21;101379.75;4842862;29;20041;-82
2022/08/18 08:02:49;;;;;;;21.40;16.83;;;;;;;23.41;72.80;101377.94;4889892;29;20664;-79
2022/08/18 08:05:33;;;;;;;19.13;17.10;;;;;;;23.26;70.44;101386.66;4936149;29;20491;-90
2022/08/18 08:08:09;;;;;;;18.80;16.10;;;;;;;23.00;72.09;101381.53;4936433;29;20031;-79
2022/08/18 08:10:48;;;;;;;18.10;15.93;;;;;;;22.72;73.60;101383.66;4936280;29;20118;-78
2022/08/18 08:13:37;;;;;;;20.52;16.42;;;;;;;22.59;73.61;101368.31;4919941;29;20040;-75
2022/08/18 08:16:08;;;;;;;18.38;15.82;;;;;;;22.57;74.10;101380.81;4976230;28;20084;-79
2022/08/18 08:18:34;;;;;;;19.65;15.43;;;;;;;22.60;74.02;101386.56;5035458;28;20563;-79
2022/08/18 08:21:06;;;;;;;20.08;14.95;;;;;;;22.49;75.16;101378.97;5035294;28;20112;-78
2022/08/18 08:23:38;;;;;;;12.85;10.73;;;;;;;22.70;73.69;101385.59;5035234;28;20034;-90
2022/08/18 08:26:03;;;;;;;15.18;12.20;;;;;;;22.82;73.41;101386.97;5035378;28;20120;-76
2022/08/18 08:28:52;;;;;;;13.43;10.13;;;;;;;22.93;72.10;101381.41;5035205;28;20117;-75
2022/08/18 08:31:42;;;;;;;11.10;8.63;;;;;;;22.98;72.50;101394.88;4955116;29;20291;-79
2022/08/18 08:34:21;;;;;;;10.55;9.07;;;;;;;23.03;71.67;101395.22;4955191;29;20114;-80
2022/08/18 08:36:48;;;;;;;10.07;8.35;;;;;;;23.10;70.83;101393.56;4954877;29;20137;-77
2022/08/18 08:39:23;;;;;;;11.63;8.10;;;;;;;23.35;70.28;101383.03;4955035;29;20391;-76
2022/08/18 08:41:55;;;;;;;9.85;8.15;;;;;;;23.71;69.17;101400.16;4954914;29;20038;-76
2022/08/18 08:44:53;;;;;;;10.02;8.38;;;;;;;23.91;69.60;101387.41;4954589;29;20047;-83
2022/08/18 08:47:51;;;;;;;11.20;8.07;;;;;;;24.13;68.70;101398.19;4878722;29;20041;-80
2022/08/18 08:50:20;;;;;;;10.45;8.27;;;;;;;24.19;67.00;101392.25;4874366;29;20045;-85
2022/08/18 08:52:54;;;;;;;11.82;8.15;;;;;;;24.22;66.68;101399.81;4878976;29;20073;-82
2022/08/18 08:55:34;;;;;;;11.27;7.93;;;;;;;24.33;66.38;101402.09;4879178;29;20502;-78
2022/08/18 08:58:08;;;;;;;9.15;7.80;;;;;;;24.71;64.65;101402.22;4878775;29;20548;-75
2022/08/18 09:00:35;;;;;;;8.73;7.65;;;;;;;24.73;64.93;101408.13;4878791;29;20055;-75
2022/08/18 09:03:32;;;;;;;12.23;8.15;;;;;;;24.92;64.63;101410.31;4878785;29;20051;-75
2022/08/18 09:06:28;;;;;;;9.48;7.88;;;;;;;24.92;64.38;101407.66;4878699;29;20469;-77
2022/08/18 09:09:18;;;;;;;11.27;8.20;;;;;;;25.02;64.10;101403.00;4921388;29;20453;-79
2022/08/18 09:12:02;;;;;;;10.38;7.78;;;;;;;24.83;62.01;101401.63;4935218;29;20535;-77
2022/08/18 09:14:36;;;;;;;9.50;7.82;;;;;;;24.80;63.49;101407.25;4918996;29;20043;-75
2022/08/18 09:17:36;;;;;;;9.80;7.93;;;;;;;24.82;64.08;101402.63;4919436;29;20252;-77
2022/08/18 09:20:29;;;;;;;9.77;8.15;;;;;;;24.69;63.56;101407.66;4934986;29;20031;-78
2022/08/18 09:23:17;;;;;;;10.70;7.97;;;;;;;24.66;63.71;101400.06;4951340;28;20041;-79
2022/08/18 09:25:42;;;;;;;9.75;7.65;;;;;;;24.63;62.78;101413.63;5033342;28;20029;-73
2022/08/18 09:28:13;;;;;;;9.85;7.80;;;;;;;24.54;62.66;101404.94;5034266;28;20036;-76
2022/08/18 09:30:46;;;;;;;;;;;;;;;24.71;64.38;101410.94;5035134;28;20432;-75
2022/08/18 09:33:50;;;;;;;11.02;8.15;;;;;;;24.68;62.94;101410.47;5034128;28;20327;-75
2022/08/18 09:36:30;;;;;;;9.75;8.07;;;;;;;24.86;63.31;101405.72;5033986;28;20025;-79
2022/08/18 09:42:08;;;;;;;10.60;9.27;;;;;;;24.53;62.78;101384.00;5033985;28;20084;-75
2022/08/18 09:44:45;;;;;;;10.23;8.93;;;;;;;24.46;64.77;101404.16;5033342;28;20034;-77
2022/08/18 09:47:19;;;;;;;10.77;9.10;;;;;;;24.29;64.29;101409.50;5033624;28;20064;-75
2022/08/18 09:49:52;;;;;;;11.45;8.32;;;;;;;24.13;64.92;101396.38;5033729;28;20029;-75
2022/08/18 09:52:26;;;;;;;11.45;9.07;;;;;;;24.10;65.54;101402.00;5033978;28;20087;-75
2022/08/18 09:55:17;;;;;;;12.30;9.38;;;;;;;24.04;65.38;101386.84;5034150;28;20416;-76
2022/08/18 09:57:44;;;;;;;12.95;10.18;;;;;;;24.13;64.65;101396.38;5015171;28;20048;-78
2022/08/18 10:00:13;;;;;;;15.38;12.02;;;;;;;23.99;64.73;101400.56;5015151;28;20041;-78
2022/08/18 10:02:39;;;;;;;12.98;11.13;;;;;;;24.03;66.02;101409.78;5033655;28;20035;-75
2022/08/18 10:05:17;;;;;;;11.32;10.13;;;;;;;24.28;66.02;101409.66;5033549;28;20038;-74
2022/08/18 10:08:13;;;;;;;13.38;11.07;;;;;;;24.74;64.22;101392.09;5033575;28;20120;-75
2022/08/18 10:10:50;;;;;;;15.80;13.38;;;;;;;24.95;62.42;101399.38;4953167;28;20043;-77
2022/08/18 10:13:25;;;;;;;11.98;10.18;;;;;;;25.22;62.53;101395.41;4953035;29;20079;-76
2022/08/18 10:15:59;;;;;;;13.60;12.18;;;;;;;25.36;61.17;101396.41;4953146;29;20144;-76
2022/08/18 10:18:39;;;;;;;12.82;11.52;;;;;;;25.44;60.79;101393.72;4953141;29;20059;-75
2022/08/18 10:21:26;;;;;;;16.05;14.48;;;;;;;25.41;60.72;101394.91;4953172;29;20043;-76
2022/08/18 10:24:07;;;;;;;14.50;12.98;;;;;;;25.24;60.72;101388.09;4952955;29;20075;-79
2022/08/18 10:26:41;;;;;;;13.32;11.98;;;;;;;24.95;62.22;101382.72;4953024;29;20420;-77
2022/08/18 10:29:30;;;;;;;14.35;12.90;;;;;;;24.58;63.67;101379.00;4952838;29;20137;-79
2022/08/18 10:31:56;;;;;;;15.30;13.70;;;;;;;24.57;62.13;101383.47;4952954;28;20035;-80
2022/08/18 10:34:44;;;;;;;16.33;14.70;;;;;;;24.56;63.86;101387.09;4952995;29;20099;-80
2022/08/18 10:37:17;;;;;;;17.35;15.65;;;;;;;24.34;61.68;101365.94;4953161;29;20057;-79
2022/08/18 10:39:45;;;;;;;15.27;13.85;;;;;;;24.58;64.23;101371.06;4952492;28;20031;-78
2022/08/18 10:42:27;;;;;;;15.70;14.20;;;;;;;25.15;62.67;101382.06;4952860;29;20159;-79
2022/08/18 10:45:29;;;;;;;14.95;13.45;;;;;;;25.76;60.10;101368.75;4952424;29;20070;-74
2022/08/18 10:48:03;;;;;;;15.93;14.32;;;;;;;26.30;57.63;101377.19;4965355;28;20566;-76
2022/08/18 10:50:47;;;;;;;14.77;13.27;;;;;;;26.41;56.34;101383.03;4972146;28;20139;-76
2022/08/18 10:53:38;;;;;;;14.90;13.40;;;;;;;26.61;56.68;101378.78;4955733;28;20039;-74
2022/08/18 10:56:28;;;;;;;12.68;11.45;;;;;;;26.56;56.21;101379.34;4971785;28;20478;-75
2022/08/18 10:59:12;;;;;;;15.27;13.82;;;;;;;26.62;55.39;101384.88;4971728;28;20113;-76
2022/08/18 11:01:51;;;;;;;15.13;13.63;;;;;;;26.30;55.51;101385.13;4972053;28;20061;-79
2022/08/18 11:04:32;;;;;;;13.65;12.35;;;;;;;26.13;56.87;101369.66;4971641;28;20124;-77
2022/08/18 11:07:26;;;;;;;13.93;12.52;;;;;;;25.95;57.45;101385.91;4971462;28;20035;-77
2022/08/18 11:09:54;;;;;;;13.77;12.35;;;;;;;25.52;56.38;101359.25;4971571;28;20031;-75
2022/08/18 11:12:38;;;;;;;13.82;12.50;;;;;;;25.76;58.19;101386.47;4970757;28;20050;-75
2022/08/18 11:15:19;;;;;;;13.05;11.65;;;;;;;25.71;59.51;101376.44;4971383;28;20399;-78
2022/08/18 11:18:10;;;;;;;12.63;11.43;;;;;;;25.74;57.93;101379.53;4971499;28;20031;-77
2022/08/18 11:20:38;;;;;;;14.07;12.60;;;;;;;25.66;57.58;101368.19;4971591;28;20066;-78
2022/08/18 11:23:10;;;;;;;13.65;12.35;;;;;;;25.68;57.89;101345.03;4971613;28;20101;-76
2022/08/18 11:25:37;;;;;;;16.00;14.35;;;;;;;25.92;55.59;101363.28;5032449;28;20052;-76
2022/08/18 11:28:14;;;;;;;15.27;11.95;;;;;;;26.04;57.63;101355.69;5032278;28;20037;-76
2022/08/18 11:30:43;;;;;;;11.90;10.73;;;;;;;26.22;56.68;101332.28;5032295;28;20025;-76
2022/08/18 11:33:16;;;;;;;12.50;11.23;;;;;;;26.58;55.29;101342.88;5032552;28;20025;-76
2022/08/18 11:35:58;;;;;;;15.23;12.48;;;;;;;26.53;55.10;101332.03;5014421;28;20451;-76
2022/08/18 11:38:25;;;;;;;12.68;11.40;;;;;;;26.61;54.21;101348.81;5032169;28;20061;-75
2022/08/18 11:41:08;;;;;;;12.23;10.88;;;;;;;26.53;53.66;101341.81;5031349;28;20465;-73
2022/08/18 11:43:36;;;;;;;11.30;10.25;;;;;;;26.40;55.10;101337.19;5032665;28;20022;-74
2022/08/18 11:46:12;;;;;;;12.07;10.82;;;;;;;26.46;54.80;101348.88;5031899;28;20045;-72
2022/08/18 11:48:40;;;;;;;12.20;11.00;;;;;;;26.34;52.43;101342.38;5032293;28;20538;-74
2022/08/18 11:51:16;;;;;;;12.20;11.00;;;;;;;26.34;54.78;101332.59;5032365;28;20120;-74
2022/08/18 11:53:48;;;;;;;11.90;10.77;;;;;;;26.19;56.37;101335.31;5032394;28;20545;-74